sensor_id;sensor_type;location;lat;lon;timestamp;temperature;humidity
47857;DHT22;33618;49.972;8.242;2023-06-14T00:00:46;21.40;52.40
47857;DHT22;33618;49.972;8.242;2023-06-14T00:03:15;21.40;52.50
47857;DHT22;33618;49.972;8.242;2023-06-14T00:05:44;21.40;52.70
47857;DHT22;33618;49.972;8.242;2023-06-14T00:08:13;21.30;52.70
47857;DHT22;33618;49.972;8.242;2023-06-14T00:10:40;21.30;52.40
47857;DHT22;33618;49.972;8.242;2023-06-14T00:13:10;21.40;52.40
47857;DHT22;33618;49.972;8.242;2023-06-14T00:15:37;21.40;52.60
47857;DHT22;33618;49.972;8.242;2023-06-14T00:18:04;21.30;52.50
47857;DHT22;33618;49.972;8.242;2023-06-14T00:20:33;21.40;56.30
47857;DHT22;33618;49.972;8.242;2023-06-14T00:23:00;21.40;55.50
47857;DHT22;33618;49.972;8.242;2023-06-14T00:25:28;21.30;55.30
47857;DHT22;33618;49.972;8.242;2023-06-14T00:27:57;21.30;54.70
47857;DHT22;33618;49.972;8.242;2023-06-14T00:30:25;21.40;54.90
47857;DHT22;33618;49.972;8.242;2023-06-14T00:32:52;21.50;54.80
47857;DHT22;33618;49.972;8.242;2023-06-14T00:35:19;21.40;54.20
47857;DHT22;33618;49.972;8.242;2023-06-14T00:37:46;21.30;54.60
47857;DHT22;33618;49.972;8.242;2023-06-14T00:40:13;21.30;54.60
47857;DHT22;33618;49.972;8.242;2023-06-14T00:42:42;21.30;54.00
47857;DHT22;33618;49.972;8.242;2023-06-14T00:45:09;21.20;54.20
47857;DHT22;33618;49.972;8.242;2023-06-14T00:47:37;21.20;53.80
47857;DHT22;33618;49.972;8.242;2023-06-14T00:50:09;21.00;53.20
47857;DHT22;33618;49.972;8.242;2023-06-14T00:52:36;20.90;53.30
47857;DHT22;33618;49.972;8.242;2023-06-14T00:55:04;20.90;52.90
47857;DHT22;33618;49.972;8.242;2023-06-14T00:57:31;20.90;52.30
47857;DHT22;33618;49.972;8.242;2023-06-14T00:59:58;20.80;52.80
47857;DHT22;33618;49.972;8.242;2023-06-14T01:02:25;20.90;52.70
47857;DHT22;33618;49.972;8.242;2023-06-14T01:04:52;21.00;52.70
47857;DHT22;33618;49.972;8.242;2023-06-14T01:10:30;20.90;52.80
47857;DHT22;33618;49.972;8.242;2023-06-14T01:15:39;20.90;53.30
47857;DHT22;33618;49.972;8.242;2023-06-14T01:18:07;20.80;52.90
47857;DHT22;33618;49.972;8.242;2023-06-14T01:20:35;20.70;53.10
47857;DHT22;33618;49.972;8.242;2023-06-14T01:23:05;20.60;53.70
47857;DHT22;33618;49.972;8.242;2023-06-14T01:25:32;20.60;53.10
47857;DHT22;33618;49.972;8.242;2023-06-14T01:28:02;20.50;53.20
47857;DHT22;33618;49.972;8.242;2023-06-14T01:30:31;20.50;53.70
47857;DHT22;33618;49.972;8.242;2023-06-14T01:33:00;20.40;53.70
47857;DHT22;33618;49.972;8.242;2023-06-14T01:35:27;20.50;53.50
47857;DHT22;33618;49.972;8.242;2023-06-14T01:37:54;20.40;53.90
47857;DHT22;33618;49.972;8.242;2023-06-14T01:40:22;20.40;54.50
47857;DHT22;33618;49.972;8.242;2023-06-14T01:42:51;20.40;54.00
47857;DHT22;33618;49.972;8.242;2023-06-14T01:45:18;20.30;54.30
47857;DHT22;33618;49.972;8.242;2023-06-14T01:47:46;20.30;54.60
47857;DHT22;33618;49.972;8.242;2023-06-14T01:50:14;20.20;54.30
47857;DHT22;33618;49.972;8.242;2023-06-14T01:52:41;20.10;54.50
47857;DHT22;33618;49.972;8.242;2023-06-14T01:55:08;20.10;54.70
47857;DHT22;33618;49.972;8.242;2023-06-14T01:57:35;20.10;54.80
47857;DHT22;33618;49.972;8.242;2023-06-14T02:00:04;20.20;59.30
47857;DHT22;33618;49.972;8.242;2023-06-14T02:02:34;20.20;61.40
47857;DHT22;33618;49.972;8.242;2023-06-14T02:05:02;20.10;61.70
47857;DHT22;33618;49.972;8.242;2023-06-14T02:07:29;20.10;62.30
47857;DHT22;33618;49.972;8.242;2023-06-14T02:09:56;20.10;62.40
47857;DHT22;33618;49.972;8.242;2023-06-14T02:12:23;20.00;62.00
47857;DHT22;33618;49.972;8.242;2023-06-14T02:14:50;20.10;61.70
47857;DHT22;33618;49.972;8.242;2023-06-14T02:17:17;20.10;61.90
47857;DHT22;33618;49.972;8.242;2023-06-14T02:19:44;20.10;61.80
47857;DHT22;33618;49.972;8.242;2023-06-14T02:22:11;20.10;62.30
47857;DHT22;33618;49.972;8.242;2023-06-14T02:24:37;20.10;61.90
47857;DHT22;33618;49.972;8.242;2023-06-14T02:27:04;20.00;61.70
47857;DHT22;33618;49.972;8.242;2023-06-14T02:29:31;20.00;62.20
47857;DHT22;33618;49.972;8.242;2023-06-14T02:31:58;20.00;61.90
47857;DHT22;33618;49.972;8.242;2023-06-14T02:34:25;20.10;60.80
47857;DHT22;33618;49.972;8.242;2023-06-14T02:36:52;20.10;58.40
47857;DHT22;33618;49.972;8.242;2023-06-14T02:39:19;20.20;58.00
47857;DHT22;33618;49.972;8.242;2023-06-14T02:41:47;20.10;57.80
47857;DHT22;33618;49.972;8.242;2023-06-14T02:44:14;20.10;57.30
47857;DHT22;33618;49.972;8.242;2023-06-14T02:46:41;20.00;55.90
47857;DHT22;33618;49.972;8.242;2023-06-14T02:49:11;19.90;54.10
47857;DHT22;33618;49.972;8.242;2023-06-14T02:51:38;20.00;56.70
47857;DHT22;33618;49.972;8.242;2023-06-14T02:54:05;20.00;56.90
47857;DHT22;33618;49.972;8.242;2023-06-14T02:56:31;20.00;56.90
47857;DHT22;33618;49.972;8.242;2023-06-14T02:58:58;19.90;56.60
47857;DHT22;33618;49.972;8.242;2023-06-14T03:01:27;20.00;56.50
47857;DHT22;33618;49.972;8.242;2023-06-14T03:04:01;19.90;56.60
47857;DHT22;33618;49.972;8.242;2023-06-14T03:06:30;19.90;56.80
47857;DHT22;33618;49.972;8.242;2023-06-14T03:08:58;19.80;54.40
47857;DHT22;33618;49.972;8.242;2023-06-14T03:11:31;19.70;54.20
47857;DHT22;33618;49.972;8.242;2023-06-14T03:13:59;19.70;54.50
47857;DHT22;33618;49.972;8.242;2023-06-14T03:16:26;19.60;54.90
47857;DHT22;33618;49.972;8.242;2023-06-14T03:18:56;19.60;54.70
47857;DHT22;33618;49.972;8.242;2023-06-14T03:21:23;19.50;54.60
47857;DHT22;33618;49.972;8.242;2023-06-14T03:23:51;19.50;55.40
47857;DHT22;33618;49.972;8.242;2023-06-14T03:26:20;19.40;55.70
47857;DHT22;33618;49.972;8.242;2023-06-14T03:28:47;19.30;55.40
47857;DHT22;33618;49.972;8.242;2023-06-14T03:31:15;19.30;55.60
47857;DHT22;33618;49.972;8.242;2023-06-14T03:33:43;19.30;55.60
47857;DHT22;33618;49.972;8.242;2023-06-14T03:36:10;19.20;55.80
47857;DHT22;33618;49.972;8.242;2023-06-14T03:38:37;19.10;56.00
47857;DHT22;33618;49.972;8.242;2023-06-14T03:41:04;19.00;56.00
47857;DHT22;33618;49.972;8.242;2023-06-14T03:43:31;19.00;56.30
47857;DHT22;33618;49.972;8.242;2023-06-14T03:45:58;19.00;56.50
47857;DHT22;33618;49.972;8.242;2023-06-14T03:48:25;19.00;56.60
47857;DHT22;33618;49.972;8.242;2023-06-14T03:50:52;19.00;56.30
47857;DHT22;33618;49.972;8.242;2023-06-14T03:53:20;19.00;56.50
47857;DHT22;33618;49.972;8.242;2023-06-14T03:55:50;19.00;56.90
47857;DHT22;33618;49.972;8.242;2023-06-14T03:58:23;19.00;57.00
47857;DHT22;33618;49.972;8.242;2023-06-14T04:00:50;19.00;57.40
47857;DHT22;33618;49.972;8.242;2023-06-14T04:03:17;18.90;58.10
47857;DHT22;33618;49.972;8.242;2023-06-14T04:05:44;18.90;57.40
47857;DHT22;33618;49.972;8.242;2023-06-14T04:08:11;19.00;57.10
47857;DHT22;33618;49.972;8.242;2023-06-14T04:10:41;19.00;57.10
47857;DHT22;33618;49.972;8.242;2023-06-14T04:13:08;18.90;57.10
47857;DHT22;33618;49.972;8.242;2023-06-14T04:15:39;18.90;57.50
47857;DHT22;33618;49.972;8.242;2023-06-14T04:18:08;19.00;57.60
47857;DHT22;33618;49.972;8.242;2023-06-14T04:20:35;19.10;57.80
47857;DHT22;33618;49.972;8.242;2023-06-14T04:23:16;19.20;58.70
47857;DHT22;33618;49.972;8.242;2023-06-14T04:25:44;19.20;57.40
47857;DHT22;33618;49.972;8.242;2023-06-14T04:28:15;19.30;57.10
47857;DHT22;33618;49.972;8.242;2023-06-14T04:30:44;19.20;56.30
47857;DHT22;33618;49.972;8.242;2023-06-14T04:33:15;19.20;57.00
47857;DHT22;33618;49.972;8.242;2023-06-14T04:35:42;19.20;56.50
47857;DHT22;33618;49.972;8.242;2023-06-14T04:38:09;19.30;58.10
47857;DHT22;33618;49.972;8.242;2023-06-14T04:40:36;19.30;58.30
47857;DHT22;33618;49.972;8.242;2023-06-14T04:43:09;19.30;58.10
47857;DHT22;33618;49.972;8.242;2023-06-14T04:45:38;19.30;58.10
47857;DHT22;33618;49.972;8.242;2023-06-14T04:48:06;19.30;58.50
47857;DHT22;33618;49.972;8.242;2023-06-14T04:50:33;19.30;58.50
47857;DHT22;33618;49.972;8.242;2023-06-14T04:53:01;19.20;58.90
47857;DHT22;33618;49.972;8.242;2023-06-14T04:55:29;19.20;58.30
47857;DHT22;33618;49.972;8.242;2023-06-14T04:57:56;19.30;58.80
47857;DHT22;33618;49.972;8.242;2023-06-14T05:00:23;19.30;58.80
47857;DHT22;33618;49.972;8.242;2023-06-14T05:02:50;20.60;57.10
47857;DHT22;33618;49.972;8.242;2023-06-14T05:05:18;20.90;56.30
47857;DHT22;33618;49.972;8.242;2023-06-14T05:07:46;21.90;54.80
47857;DHT22;33618;49.972;8.242;2023-06-14T05:10:13;22.00;54.20
47857;DHT22;33618;49.972;8.242;2023-06-14T05:12:40;22.20;53.40
47857;DHT22;33618;49.972;8.242;2023-06-14T05:15:07;22.40;53.90
47857;DHT22;33618;49.972;8.242;2023-06-14T05:17:35;23.00;52.70
47857;DHT22;33618;49.972;8.242;2023-06-14T05:20:03;23.20;52.30
47857;DHT22;33618;49.972;8.242;2023-06-14T05:22:30;23.30;51.80
47857;DHT22;33618;49.972;8.242;2023-06-14T05:24:57;23.40;51.60
47857;DHT22;33618;49.972;8.242;2023-06-14T05:27:23;23.40;51.30
47857;DHT22;33618;49.972;8.242;2023-06-14T05:29:52;23.30;51.50
47857;DHT22;33618;49.972;8.242;2023-06-14T05:32:22;23.20;51.50
47857;DHT22;33618;49.972;8.242;2023-06-14T05:34:49;23.10;51.70
47857;DHT22;33618;49.972;8.242;2023-06-14T05:37:16;23.20;51.80
47857;DHT22;33618;49.972;8.242;2023-06-14T05:39:44;23.30;51.60
47857;DHT22;33618;49.972;8.242;2023-06-14T05:42:10;23.40;51.50
47857;DHT22;33618;49.972;8.242;2023-06-14T05:44:37;23.40;51.40
47857;DHT22;33618;49.972;8.242;2023-06-14T05:47:04;23.40;51.20
47857;DHT22;33618;49.972;8.242;2023-06-14T05:49:31;23.30;51.20
47857;DHT22;33618;49.972;8.242;2023-06-14T05:51:58;23.30;51.40
47857;DHT22;33618;49.972;8.242;2023-06-14T05:54:25;23.40;51.20
47857;DHT22;33618;49.972;8.242;2023-06-14T05:56:52;23.50;51.10
47857;DHT22;33618;49.972;8.242;2023-06-14T05:59:19;23.40;51.00
47857;DHT22;33618;49.972;8.242;2023-06-14T06:01:46;23.60;51.00
47857;DHT22;33618;49.972;8.242;2023-06-14T06:04:13;23.40;50.90
47857;DHT22;33618;49.972;8.242;2023-06-14T06:06:40;23.60;50.90
47857;DHT22;33618;49.972;8.242;2023-06-14T06:09:07;23.50;50.60
47857;DHT22;33618;49.972;8.242;2023-06-14T06:11:33;23.30;50.80
47857;DHT22;33618;49.972;8.242;2023-06-14T06:14:17;23.20;50.90
47857;DHT22;33618;49.972;8.242;2023-06-14T06:16:44;23.30;51.20
47857;DHT22;33618;49.972;8.242;2023-06-14T06:19:12;23.20;51.00
47857;DHT22;33618;49.972;8.242;2023-06-14T06:21:38;23.00;51.20
47857;DHT22;33618;49.972;8.242;2023-06-14T06:24:06;23.10;51.30
47857;DHT22;33618;49.972;8.242;2023-06-14T06:26:33;23.00;51.40
47857;DHT22;33618;49.972;8.242;2023-06-14T06:29:00;23.20;51.40
47857;DHT22;33618;49.972;8.242;2023-06-14T06:31:27;23.10;51.60
47857;DHT22;33618;49.972;8.242;2023-06-14T06:33:54;23.10;51.50
47857;DHT22;33618;49.972;8.242;2023-06-14T06:36:21;23.20;51.60
47857;DHT22;33618;49.972;8.242;2023-06-14T06:38:48;23.30;51.60
47857;DHT22;33618;49.972;8.242;2023-06-14T06:41:15;23.40;51.70
47857;DHT22;33618;49.972;8.242;2023-06-14T06:43:42;23.40;51.70
47857;DHT22;33618;49.972;8.242;2023-06-14T06:46:09;23.30;51.80
47857;DHT22;33618;49.972;8.242;2023-06-14T06:48:36;23.40;52.00
47857;DHT22;33618;49.972;8.242;2023-06-14T06:51:03;23.40;52.00
47857;DHT22;33618;49.972;8.242;2023-06-14T06:53:30;23.40;52.10
47857;DHT22;33618;49.972;8.242;2023-06-14T06:56:08;23.40;52.30
47857;DHT22;33618;49.972;8.242;2023-06-14T06:58:35;23.50;52.20
47857;DHT22;33618;49.972;8.242;2023-06-14T07:01:02;23.50;52.20
47857;DHT22;33618;49.972;8.242;2023-06-14T07:03:29;23.40;52.20
47857;DHT22;33618;49.972;8.242;2023-06-14T07:05:58;23.40;52.20
47857;DHT22;33618;49.972;8.242;2023-06-14T07:08:25;23.50;52.30
47857;DHT22;33618;49.972;8.242;2023-06-14T07:10:52;23.60;52.80
47857;DHT22;33618;49.972;8.242;2023-06-14T07:13:19;23.60;52.30
47857;DHT22;33618;49.972;8.242;2023-06-14T07:15:46;23.70;52.30
47857;DHT22;33618;49.972;8.242;2023-06-14T07:18:14;23.70;52.20
47857;DHT22;33618;49.972;8.242;2023-06-14T07:20:42;23.70;52.20
47857;DHT22;33618;49.972;8.242;2023-06-14T07:23:09;23.70;52.30
47857;DHT22;33618;49.972;8.242;2023-06-14T07:25:37;23.70;52.20
47857;DHT22;33618;49.972;8.242;2023-06-14T07:28:04;23.70;52.30
47857;DHT22;33618;49.972;8.242;2023-06-14T07:30:32;23.60;52.50
47857;DHT22;33618;49.972;8.242;2023-06-14T07:32:59;23.60;52.40
47857;DHT22;33618;49.972;8.242;2023-06-14T07:35:26;23.60;52.50
47857;DHT22;33618;49.972;8.242;2023-06-14T07:37:53;23.70;52.20
47857;DHT22;33618;49.972;8.242;2023-06-14T07:40:20;23.80;52.10
47857;DHT22;33618;49.972;8.242;2023-06-14T07:42:47;23.80;52.10
47857;DHT22;33618;49.972;8.242;2023-06-14T07:45:16;23.70;52.30
47857;DHT22;33618;49.972;8.242;2023-06-14T07:47:43;23.70;52.40
47857;DHT22;33618;49.972;8.242;2023-06-14T07:50:11;23.80;52.30
47857;DHT22;33618;49.972;8.242;2023-06-14T07:52:40;24.00;52.40
47857;DHT22;33618;49.972;8.242;2023-06-14T07:55:07;24.00;52.00
47857;DHT22;33618;49.972;8.242;2023-06-14T07:57:34;23.90;52.00
47857;DHT22;33618;49.972;8.242;2023-06-14T08:00:00;23.90;52.20
47857;DHT22;33618;49.972;8.242;2023-06-14T08:02:27;23.90;52.20
47857;DHT22;33618;49.972;8.242;2023-06-14T08:04:54;24.10;52.30
47857;DHT22;33618;49.972;8.242;2023-06-14T08:07:21;24.00;51.90
47857;DHT22;33618;49.972;8.242;2023-06-14T08:09:48;23.90;52.00
47857;DHT22;33618;49.972;8.242;2023-06-14T08:12:15;23.80;52.20
47857;DHT22;33618;49.972;8.242;2023-06-14T08:14:42;23.70;52.30
47857;DHT22;33618;49.972;8.242;2023-06-14T08:17:09;23.90;52.40
47857;DHT22;33618;49.972;8.242;2023-06-14T08:19:36;23.90;52.50
47857;DHT22;33618;49.972;8.242;2023-06-14T08:22:04;23.80;52.50
47857;DHT22;33618;49.972;8.242;2023-06-14T08:24:31;23.90;52.40
47857;DHT22;33618;49.972;8.242;2023-06-14T08:26:58;23.90;52.10
47857;DHT22;33618;49.972;8.242;2023-06-14T08:29:27;23.90;52.00
47857;DHT22;33618;49.972;8.242;2023-06-14T08:31:57;23.90;52.20
47857;DHT22;33618;49.972;8.242;2023-06-14T08:34:24;24.00;52.20
47857;DHT22;33618;49.972;8.242;2023-06-14T08:36:51;23.90;52.00
47857;DHT22;33618;49.972;8.242;2023-06-14T08:39:18;23.80;51.90
47857;DHT22;33618;49.972;8.242;2023-06-14T08:41:46;23.80;51.90
47857;DHT22;33618;49.972;8.242;2023-06-14T08:44:16;23.90;52.10
47857;DHT22;33618;49.972;8.242;2023-06-14T08:46:43;24.00;52.20
47857;DHT22;33618;49.972;8.242;2023-06-14T08:49:11;24.10;52.00
47857;DHT22;33618;49.972;8.242;2023-06-14T08:51:38;24.20;51.90
47857;DHT22;33618;49.972;8.242;2023-06-14T08:54:07;24.20;51.90
47857;DHT22;33618;49.972;8.242;2023-06-14T08:56:37;24.20;52.20
47857;DHT22;33618;49.972;8.242;2023-06-14T08:59:06;24.20;52.60
47857;DHT22;33618;49.972;8.242;2023-06-14T09:01:34;24.10;51.80
47857;DHT22;33618;49.972;8.242;2023-06-14T09:04:01;24.10;52.10
47857;DHT22;33618;49.972;8.242;2023-06-14T09:06:29;24.20;52.20
47857;DHT22;33618;49.972;8.242;2023-06-14T09:08:56;24.20;52.20
47857;DHT22;33618;49.972;8.242;2023-06-14T09:11:24;24.30;52.20
47857;DHT22;33618;49.972;8.242;2023-06-14T09:13:53;24.20;51.90
47857;DHT22;33618;49.972;8.242;2023-06-14T09:16:20;24.20;51.70
47857;DHT22;33618;49.972;8.242;2023-06-14T09:18:47;24.30;51.70
47857;DHT22;33618;49.972;8.242;2023-06-14T09:21:16;24.30;51.70
47857;DHT22;33618;49.972;8.242;2023-06-14T09:23:45;24.40;51.40
47857;DHT22;33618;49.972;8.242;2023-06-14T09:26:19;24.70;51.30
47857;DHT22;33618;49.972;8.242;2023-06-14T09:28:50;25.10;51.00
47857;DHT22;33618;49.972;8.242;2023-06-14T09:31:18;25.60;50.40
47857;DHT22;33618;49.972;8.242;2023-06-14T09:33:48;25.80;49.40
47857;DHT22;33618;49.972;8.242;2023-06-14T09:36:21;25.80;49.00
47857;DHT22;33618;49.972;8.242;2023-06-14T09:38:59;26.10;49.10
47857;DHT22;33618;49.972;8.242;2023-06-14T09:41:31;26.60;48.90
47857;DHT22;33618;49.972;8.242;2023-06-14T09:43:59;26.90;49.00
47857;DHT22;33618;49.972;8.242;2023-06-14T09:46:35;27.10;48.90
47857;DHT22;33618;49.972;8.242;2023-06-14T10:13:43;26.00;49.50
47857;DHT22;33618;49.972;8.242;2023-06-14T10:19:07;25.80;49.30
47857;DHT22;33618;49.972;8.242;2023-06-14T10:21:58;25.70;49.20
47857;DHT22;33618;49.972;8.242;2023-06-14T10:24:33;25.80;49.00
47857;DHT22;33618;49.972;8.242;2023-06-14T10:27:00;25.80;48.80
47857;DHT22;33618;49.972;8.242;2023-06-14T10:29:28;25.80;49.00
47857;DHT22;33618;49.972;8.242;2023-06-14T10:32:00;25.80;48.90
47857;DHT22;33618;49.972;8.242;2023-06-14T10:34:29;26.20;48.70
47857;DHT22;33618;49.972;8.242;2023-06-14T10:39:32;26.20;48.70
47857;DHT22;33618;49.972;8.242;2023-06-14T10:42:02;25.60;48.80
47857;DHT22;33618;49.972;8.242;2023-06-14T10:44:33;25.70;48.80
47857;DHT22;33618;49.972;8.242;2023-06-14T10:47:01;25.80;48.90
47857;DHT22;33618;49.972;8.242;2023-06-14T10:49:45;25.90;48.90
47857;DHT22;33618;49.972;8.242;2023-06-14T10:52:16;25.60;48.80
47857;DHT22;33618;49.972;8.242;2023-06-14T10:54:59;25.10;49.50
47857;DHT22;33618;49.972;8.242;2023-06-14T10:57:27;25.50;49.30
47857;DHT22;33618;49.972;8.242;2023-06-14T10:59:54;25.60;48.80
47857;DHT22;33618;49.972;8.242;2023-06-14T11:04:59;25.70;49.10
47857;DHT22;33618;49.972;8.242;2023-06-14T11:12:48;26.20;48.90
47857;DHT22;33618;49.972;8.242;2023-06-14T11:15:15;26.40;48.50
47857;DHT22;33618;49.972;8.242;2023-06-14T11:17:52;26.20;48.90
47857;DHT22;33618;49.972;8.242;2023-06-14T11:20:25;26.70;49.10
47857;DHT22;33618;49.972;8.242;2023-06-14T11:22:54;26.90;48.40
47857;DHT22;33618;49.972;8.242;2023-06-14T11:25:21;26.80;48.60
47857;DHT22;33618;49.972;8.242;2023-06-14T11:27:50;26.50;48.50
47857;DHT22;33618;49.972;8.242;2023-06-14T11:30:17;26.70;48.60
47857;DHT22;33618;49.972;8.242;2023-06-14T11:32:48;26.90;48.10
47857;DHT22;33618;49.972;8.242;2023-06-14T11:35:15;27.00;48.60
47857;DHT22;33618;49.972;8.242;2023-06-14T11:37:43;27.60;48.40
47857;DHT22;33618;49.972;8.242;2023-06-14T11:40:14;27.10;48.60
47857;DHT22;33618;49.972;8.242;2023-06-14T11:42:41;27.10;48.30
47857;DHT22;33618;49.972;8.242;2023-06-14T11:45:10;27.20;48.40
47857;DHT22;33618;49.972;8.242;2023-06-14T11:47:38;27.80;48.20
47857;DHT22;33618;49.972;8.242;2023-06-14T11:50:07;27.70;48.30
47857;DHT22;33618;49.972;8.242;2023-06-14T11:52:36;27.30;48.10
47857;DHT22;33618;49.972;8.242;2023-06-14T11:55:06;27.50;48.10
47857;DHT22;33618;49.972;8.242;2023-06-14T11:57:35;27.80;48.10
47857;DHT22;33618;49.972;8.242;2023-06-14T12:00:04;27.60;48.00
47857;DHT22;33618;49.972;8.242;2023-06-14T12:02:39;27.60;48.20
47857;DHT22;33618;49.972;8.242;2023-06-14T12:05:08;26.70;48.70
47857;DHT22;33618;49.972;8.242;2023-06-14T12:07:37;26.70;48.80
47857;DHT22;33618;49.972;8.242;2023-06-14T12:10:09;26.80;48.90
47857;DHT22;33618;49.972;8.242;2023-06-14T12:12:38;26.20;49.00
47857;DHT22;33618;49.972;8.242;2023-06-14T12:15:07;25.90;49.10
47857;DHT22;33618;49.972;8.242;2023-06-14T12:17:38;25.40;49.50
47857;DHT22;33618;49.972;8.242;2023-06-14T12:20:14;25.60;49.40
47857;DHT22;33618;49.972;8.242;2023-06-14T12:22:53;26.20;49.60
47857;DHT22;33618;49.972;8.242;2023-06-14T12:25:31;26.90;48.70
47857;DHT22;33618;49.972;8.242;2023-06-14T12:27:59;26.80;48.80
47857;DHT22;33618;49.972;8.242;2023-06-14T12:30:26;26.90;48.50
47857;DHT22;33618;49.972;8.242;2023-06-14T12:32:53;26.10;48.90
47857;DHT22;33618;49.972;8.242;2023-06-14T12:35:20;25.80;49.50
47857;DHT22;33618;49.972;8.242;2023-06-14T12:37:47;25.90;49.70
47857;DHT22;33618;49.972;8.242;2023-06-14T12:40:15;25.90;49.70
47857;DHT22;33618;49.972;8.242;2023-06-14T12:42:44;26.10;49.70
47857;DHT22;33618;49.972;8.242;2023-06-14T12:45:11;26.10;49.20
47857;DHT22;33618;49.972;8.242;2023-06-14T12:47:38;26.50;49.00
47857;DHT22;33618;49.972;8.242;2023-06-14T12:50:06;27.10;48.80
47857;DHT22;33618;49.972;8.242;2023-06-14T12:52:33;27.70;48.50
47857;DHT22;33618;49.972;8.242;2023-06-14T12:55:07;27.10;48.90
47857;DHT22;33618;49.972;8.242;2023-06-14T12:57:35;26.40;49.60
47857;DHT22;33618;49.972;8.242;2023-06-14T13:00:04;26.10;49.70
47857;DHT22;33618;49.972;8.242;2023-06-14T13:02:32;25.90;49.90
47857;DHT22;33618;49.972;8.242;2023-06-14T13:04:59;25.70;49.80
47857;DHT22;33618;49.972;8.242;2023-06-14T13:07:27;25.70;49.90
47857;DHT22;33618;49.972;8.242;2023-06-14T13:09:54;25.60;49.80
47857;DHT22;33618;49.972;8.242;2023-06-14T13:12:21;26.30;49.40
47857;DHT22;33618;49.972;8.242;2023-06-14T13:14:48;27.10;48.70
47857;DHT22;33618;49.972;8.242;2023-06-14T13:17:15;27.60;48.70
47857;DHT22;33618;49.972;8.242;2023-06-14T13:19:42;27.20;48.70
47857;DHT22;33618;49.972;8.242;2023-06-14T13:22:09;26.90;50.00
47857;DHT22;33618;49.972;8.242;2023-06-14T13:24:37;27.10;48.80
47857;DHT22;33618;49.972;8.242;2023-06-14T13:27:04;27.10;48.70
47857;DHT22;33618;49.972;8.242;2023-06-14T13:29:32;26.60;48.60
47857;DHT22;33618;49.972;8.242;2023-06-14T13:31:59;26.70;49.00
47857;DHT22;33618;49.972;8.242;2023-06-14T13:34:27;27.00;48.60
47857;DHT22;33618;49.972;8.242;2023-06-14T13:36:54;26.60;48.60
47857;DHT22;33618;49.972;8.242;2023-06-14T13:39:22;26.40;48.60
47857;DHT22;33618;49.972;8.242;2023-06-14T13:41:49;26.20;49.10
47857;DHT22;33618;49.972;8.242;2023-06-14T13:44:16;26.30;48.70
47857;DHT22;33618;49.972;8.242;2023-06-14T13:46:45;26.80;48.50
47857;DHT22;33618;49.972;8.242;2023-06-14T13:49:29;27.80;47.80
47857;DHT22;33618;49.972;8.242;2023-06-14T13:52:15;27.40;47.80
47857;DHT22;33618;49.972;8.242;2023-06-14T13:55:00;26.60;48.00
47857;DHT22;33618;49.972;8.242;2023-06-14T13:57:27;26.20;48.30
47857;DHT22;33618;49.972;8.242;2023-06-14T13:59:53;25.90;48.60
47857;DHT22;33618;49.972;8.242;2023-06-14T14:02:22;26.00;48.80
47857;DHT22;33618;49.972;8.242;2023-06-14T14:04:49;25.90;49.10
47857;DHT22;33618;49.972;8.242;2023-06-14T14:07:20;25.70;48.90
47857;DHT22;33618;49.972;8.242;2023-06-14T14:10:04;25.50;49.00
47857;DHT22;33618;49.972;8.242;2023-06-14T14:12:31;25.20;48.80
47857;DHT22;33618;49.972;8.242;2023-06-14T14:14:58;25.30;48.80
47857;DHT22;33618;49.972;8.242;2023-06-14T14:17:25;25.40;48.70
47857;DHT22;33618;49.972;8.242;2023-06-14T14:20:10;25.60;48.90
47857;DHT22;33618;49.972;8.242;2023-06-14T14:22:40;25.90;48.50
47857;DHT22;33618;49.972;8.242;2023-06-14T14:25:25;26.00;48.20
47857;DHT22;33618;49.972;8.242;2023-06-14T14:28:09;26.50;47.80
47857;DHT22;33618;49.972;8.242;2023-06-14T14:30:36;26.90;47.70
47857;DHT22;33618;49.972;8.242;2023-06-14T14:33:06;27.10;47.50
47857;DHT22;33618;49.972;8.242;2023-06-14T14:35:33;27.20;47.70
47857;DHT22;33618;49.972;8.242;2023-06-14T14:38:00;27.20;48.30
47857;DHT22;33618;49.972;8.242;2023-06-14T14:40:27;26.80;48.00
47857;DHT22;33618;49.972;8.242;2023-06-14T14:42:54;26.40;48.10
47857;DHT22;33618;49.972;8.242;2023-06-14T14:45:21;26.60;47.90
47857;DHT22;33618;49.972;8.242;2023-06-14T14:47:48;26.20;48.00
47857;DHT22;33618;49.972;8.242;2023-06-14T14:50:15;25.90;48.00
47857;DHT22;33618;49.972;8.242;2023-06-14T14:52:43;25.80;48.00
47857;DHT22;33618;49.972;8.242;2023-06-14T14:55:10;25.80;48.10
47857;DHT22;33618;49.972;8.242;2023-06-14T14:57:37;25.60;48.20
47857;DHT22;33618;49.972;8.242;2023-06-14T15:00:05;25.60;48.20
47857;DHT22;33618;49.972;8.242;2023-06-14T15:02:32;25.60;48.30
47857;DHT22;33618;49.972;8.242;2023-06-14T15:04:59;25.60;48.30
47857;DHT22;33618;49.972;8.242;2023-06-14T15:07:27;25.80;48.30
47857;DHT22;33618;49.972;8.242;2023-06-14T15:09:55;26.40;47.80
47857;DHT22;33618;49.972;8.242;2023-06-14T15:12:22;27.10;47.30
47857;DHT22;33618;49.972;8.242;2023-06-14T15:14:53;27.80;47.00
47857;DHT22;33618;49.972;8.242;2023-06-14T15:17:21;28.20;46.70
47857;DHT22;33618;49.972;8.242;2023-06-14T15:19:48;28.00;46.70
47857;DHT22;33618;49.972;8.242;2023-06-14T15:22:15;28.50;46.30
47857;DHT22;33618;49.972;8.242;2023-06-14T15:24:43;28.70;46.10
47857;DHT22;33618;49.972;8.242;2023-06-14T15:27:12;28.30;46.30
47857;DHT22;33618;49.972;8.242;2023-06-14T15:29:41;27.90;46.60
47857;DHT22;33618;49.972;8.242;2023-06-14T15:32:08;26.90;47.40
47857;DHT22;33618;49.972;8.242;2023-06-14T15:34:35;26.30;48.20
47857;DHT22;33618;49.972;8.242;2023-06-14T15:37:08;26.00;48.40
47857;DHT22;33618;49.972;8.242;2023-06-14T15:39:35;25.50;48.90
47857;DHT22;33618;49.972;8.242;2023-06-14T15:42:02;25.50;49.10
47857;DHT22;33618;49.972;8.242;2023-06-14T15:44:30;25.40;49.30
47857;DHT22;33618;49.972;8.242;2023-06-14T15:46:56;25.40;49.10
47857;DHT22;33618;49.972;8.242;2023-06-14T15:49:23;25.50;48.90
47857;DHT22;33618;49.972;8.242;2023-06-14T15:51:50;25.60;48.90
47857;DHT22;33618;49.972;8.242;2023-06-14T15:54:17;25.60;49.20
47857;DHT22;33618;49.972;8.242;2023-06-14T15:56:44;25.80;48.90
47857;DHT22;33618;49.972;8.242;2023-06-14T15:59:11;25.80;48.80
47857;DHT22;33618;49.972;8.242;2023-06-14T16:01:38;26.00;48.60
47857;DHT22;33618;49.972;8.242;2023-06-14T16:04:06;26.20;48.50
47857;DHT22;33618;49.972;8.242;2023-06-14T16:06:33;26.20;48.20
47857;DHT22;33618;49.972;8.242;2023-06-14T16:09:00;25.80;48.20
47857;DHT22;33618;49.972;8.242;2023-06-14T16:11:29;25.90;47.80
47857;DHT22;33618;49.972;8.242;2023-06-14T16:13:56;26.50;47.40
47857;DHT22;33618;49.972;8.242;2023-06-14T16:16:23;27.00;47.20
47857;DHT22;33618;49.972;8.242;2023-06-14T16:18:50;27.10;47.10
47857;DHT22;33618;49.972;8.242;2023-06-14T16:21:17;27.30;47.10